createdAt,value
2023-12-16T00:01:29.289Z,-1.51
2023-12-16T00:04:32.270Z,-1.61
2023-12-16T00:07:35.614Z,-1.56
2023-12-16T00:10:38.663Z,-1.60
2023-12-16T00:13:41.342Z,-1.73
2023-12-16T00:16:47.272Z,-1.75
2023-12-16T00:19:49.847Z,-1.68
2023-12-16T00:22:52.606Z,-1.64
2023-12-16T00:25:55.072Z,-1.75
2023-12-16T00:28:57.856Z,-1.89
2023-12-16T00:32:00.402Z,-1.67
2023-12-16T00:35:03.794Z,-1.68
2023-12-16T00:38:06.246Z,-1.58
2023-12-16T00:41:09.063Z,-1.50
2023-12-16T00:44:11.464Z,-1.61
2023-12-16T00:47:14.140Z,-1.57
2023-12-16T00:50:16.526Z,-1.42
2023-12-16T00:53:19.197Z,-1.16
2023-12-16T00:56:24.145Z,-1.18
2023-12-16T00:59:27.497Z,-1.23
2023-12-16T01:02:29.905Z,-1.17
2023-12-16T01:05:32.701Z,-1.07
2023-12-16T01:08:35.203Z,-1.23
2023-12-16T01:11:38.045Z,-1.12
2023-12-16T01:14:40.452Z,-0.95
2023-12-16T01:17:43.622Z,-0.94
2023-12-16T01:20:46.318Z,-1.08
2023-12-16T01:23:49.120Z,-1.05
2023-12-16T01:26:51.627Z,-1.03
2023-12-16T01:29:54.393Z,-0.98
2023-12-16T01:32:57.000Z,-1.07
2023-12-16T01:35:59.978Z,-1.04
2023-12-16T01:39:02.503Z,-1.03
2023-12-16T01:42:05.494Z,-1.15
2023-12-16T01:45:08.702Z,-1.21
2023-12-16T01:48:13.892Z,-1.26
2023-12-16T01:51:17.439Z,-1.39
2023-12-16T01:54:21.818Z,-1.33
2023-12-16T01:57:24.623Z,-1.40
2023-12-16T02:00:29.939Z,-1.48
2023-12-16T02:03:33.694Z,-1.55
2023-12-16T02:06:36.349Z,-1.61
2023-12-16T02:09:39.163Z,-1.40
2023-12-16T02:12:41.545Z,-1.53
2023-12-16T02:15:44.304Z,-1.63
2023-12-16T02:18:46.919Z,-1.68
2023-12-16T02:21:49.679Z,-1.84
2023-12-16T02:24:53.570Z,-1.85
2023-12-16T02:27:56.385Z,-1.91
2023-12-16T02:30:58.942Z,-1.96
2023-12-16T02:34:01.790Z,-2.01
2023-12-16T02:37:07.460Z,-2.09
2023-12-16T02:40:10.713Z,-2.07
2023-12-16T02:43:13.299Z,-2.06
2023-12-16T02:46:16.079Z,-1.88
2023-12-16T02:49:18.557Z,-1.89
2023-12-16T02:52:21.432Z,-1.83
2023-12-16T02:55:24.189Z,-1.60
2023-12-16T02:58:27.136Z,-1.66
2023-12-16T03:01:29.883Z,-1.62
2023-12-16T03:04:33.057Z,-1.50
2023-12-16T03:07:35.721Z,-1.53
2023-12-16T03:10:38.698Z,-1.43
2023-12-16T03:13:41.293Z,-1.48
2023-12-16T03:16:44.318Z,-1.41
2023-12-16T03:19:46.967Z,-1.26
2023-12-16T03:22:50.118Z,-1.37
2023-12-16T03:25:52.649Z,-1.39
2023-12-16T03:28:55.373Z,-1.42
2023-12-16T03:31:58.252Z,-1.59
2023-12-16T03:35:00.893Z,-1.41
2023-12-16T03:38:04.233Z,-1.67
2023-12-16T03:41:07.255Z,-1.67
2023-12-16T03:44:09.754Z,-1.78
2023-12-16T03:47:12.528Z,-1.77
2023-12-16T03:50:14.904Z,-1.79
2023-12-16T03:53:17.570Z,-1.90
2023-12-16T03:56:19.965Z,-2.07
2023-12-16T03:59:22.698Z,-2.15
2023-12-16T04:02:25.263Z,-2.17
2023-12-16T04:05:28.058Z,-2.19
2023-12-16T04:08:30.512Z,-2.26
2023-12-16T04:11:33.456Z,-2.27
2023-12-16T04:14:40.171Z,-2.31
2023-12-16T04:17:43.196Z,-2.38
2023-12-16T04:20:45.870Z,-2.49
2023-12-16T04:23:48.778Z,-2.52
2023-12-16T04:26:51.348Z,-2.63
2023-12-16T04:29:54.442Z,-2.67
2023-12-16T04:32:56.969Z,-2.68
2023-12-16T04:35:59.852Z,-2.66
2023-12-16T04:39:02.438Z,-2.71
2023-12-16T04:42:05.331Z,-2.80
2023-12-16T04:45:08.254Z,-2.79
2023-12-16T04:48:11.189Z,-2.82
2023-12-16T04:51:13.637Z,-2.89
2023-12-16T04:54:17.801Z,-2.91
2023-12-16T04:57:20.216Z,-2.97
2023-12-16T05:00:22.926Z,-3.05
2023-12-16T05:03:25.399Z,-3.02
2023-12-16T05:06:28.109Z,-3.07
2023-12-16T05:09:30.550Z,-3.11
2023-12-16T05:12:35.862Z,-3.13
2023-12-16T05:15:39.848Z,-3.12
2023-12-16T05:18:42.671Z,-3.15
2023-12-16T05:21:45.145Z,-3.16
2023-12-16T05:24:49.570Z,-3.21
2023-12-16T05:27:52.068Z,-3.23
2023-12-16T05:30:54.845Z,-3.27
2023-12-16T05:33:57.493Z,-3.27
2023-12-16T05:37:00.443Z,-3.26
2023-12-16T05:40:03.832Z,-3.29
2023-12-16T05:43:07.015Z,-3.24
2023-12-16T05:46:09.621Z,-3.19
2023-12-16T05:49:12.491Z,-3.25
2023-12-16T05:52:15.628Z,-3.26
2023-12-16T05:55:18.482Z,-3.21
2023-12-16T05:58:22.207Z,-3.24
2023-12-16T06:01:25.232Z,-3.22
2023-12-16T06:04:28.289Z,-3.11
2023-12-16T06:07:31.567Z,-3.17
2023-12-16T06:10:34.334Z,-3.09
2023-12-16T06:13:36.832Z,-3.14
2023-12-16T06:16:39.653Z,-3.13
2023-12-16T06:19:42.170Z,-3.16
2023-12-16T06:22:44.934Z,-2.99
2023-12-16T06:25:47.330Z,-3.05
2023-12-16T06:28:50.000Z,-3.06
2023-12-16T06:31:52.400Z,-3.11
2023-12-16T06:34:55.136Z,-3.07
2023-12-16T06:37:57.572Z,-3.02
2023-12-16T06:41:00.218Z,-2.80
2023-12-16T06:44:02.760Z,-2.71
2023-12-16T06:47:05.423Z,-2.42
2023-12-16T06:50:09.568Z,-2.19
2023-12-16T06:53:12.954Z,-2.02
2023-12-16T06:56:15.763Z,-1.72
2023-12-16T06:59:18.745Z,-1.24
2023-12-16T07:02:21.683Z,-0.79
2023-12-16T07:05:24.479Z,-0.63
2023-12-16T07:08:27.156Z,-0.34
2023-12-16T07:11:29.956Z,0.20
2023-12-16T07:14:34.863Z,0.48
2023-12-16T07:17:38.245Z,0.59
2023-12-16T07:20:41.449Z,0.87
2023-12-16T07:23:44.438Z,0.67
2023-12-16T07:26:47.052Z,0.83
2023-12-16T07:29:51.949Z,1.24
2023-12-16T07:32:54.705Z,1.71
2023-12-16T07:35:57.944Z,3.10
2023-12-16T07:39:00.590Z,2.61
2023-12-16T07:42:04.436Z,2.09
2023-12-16T07:45:08.381Z,2.38
2023-12-16T07:48:11.678Z,2.51
2023-12-16T07:51:18.753Z,2.75
2023-12-16T07:54:23.706Z,2.94
2023-12-16T07:57:26.074Z,3.05
2023-12-16T08:00:28.869Z,3.58
2023-12-16T08:03:31.598Z,3.96
2023-12-16T08:06:34.460Z,4.67
2023-12-16T08:09:37.508Z,4.56
2023-12-16T08:12:39.877Z,5.55
2023-12-16T08:15:42.615Z,5.44
2023-12-16T08:18:45.026Z,7.51
2023-12-16T08:21:47.703Z,5.88
2023-12-16T08:24:50.176Z,6.69
2023-12-16T08:27:52.948Z,7.06
2023-12-16T08:30:55.709Z,5.91
2023-12-16T08:33:58.707Z,5.93
2023-12-16T08:37:01.483Z,5.93
2023-12-16T08:40:05.566Z,5.74
2023-12-16T08:43:08.724Z,5.66
2023-12-16T08:46:13.234Z,5.34
2023-12-16T08:49:16.258Z,5.43
2023-12-16T08:52:19.132Z,5.35
2023-12-16T08:55:23.364Z,5.98
2023-12-16T08:58:26.181Z,6.52
2023-12-16T09:01:28.823Z,6.62
2023-12-16T09:04:31.724Z,7.22
2023-12-16T09:07:35.201Z,7.88
2023-12-16T09:10:38.054Z,8.58
2023-12-16T09:13:40.715Z,8.07
2023-12-16T09:16:44.258Z,8.25
2023-12-16T09:19:46.769Z,8.92
2023-12-16T09:22:49.460Z,9.24
2023-12-16T09:25:51.864Z,10.25
2023-12-16T09:28:54.820Z,9.85
2023-12-16T09:31:57.310Z,10.69
2023-12-16T09:34:59.998Z,10.92
2023-12-16T09:38:02.721Z,11.23
2023-12-16T09:41:05.903Z,11.60
2023-12-16T09:44:09.628Z,13.02
2023-12-16T09:47:14.041Z,14.31
2023-12-16T09:50:16.723Z,14.09
2023-12-16T09:53:19.389Z,11.38
2023-12-16T09:56:22.602Z,11.92
2023-12-16T09:59:27.572Z,11.79
2023-12-16T10:02:30.265Z,11.59
2023-12-16T10:05:35.393Z,11.18
2023-12-16T10:08:39.911Z,12.11
2023-12-16T10:11:42.965Z,12.10
2023-12-16T10:14:49.954Z,11.03
2023-12-16T10:17:53.387Z,12.36
2023-12-16T10:20:59.272Z,12.96
2023-12-16T10:24:03.822Z,12.34
2023-12-16T10:27:08.559Z,11.75
2023-12-16T10:30:12.938Z,13.28
2023-12-16T10:33:15.967Z,13.89
2023-12-16T10:36:19.334Z,12.76
2023-12-16T10:39:21.812Z,14.01
2023-12-16T10:42:25.337Z,13.43
2023-12-16T10:45:27.819Z,15.97
2023-12-16T10:48:33.966Z,14.24
2023-12-16T10:51:42.008Z,15.53
2023-12-16T10:54:48.334Z,14.81
2023-12-16T10:58:08.628Z,14.69
2023-12-16T11:01:17.835Z,17.35
2023-12-16T11:04:25.692Z,16.21
2023-12-16T11:07:30.416Z,18.20
2023-12-16T11:10:33.616Z,18.46
2023-12-16T11:13:36.831Z,17.72
2023-12-16T11:16:53.379Z,17.27
2023-12-16T11:20:15.063Z,18.60
2023-12-16T11:23:18.176Z,17.81
2023-12-16T11:26:21.209Z,19.10
2023-12-16T11:29:24.756Z,17.85
2023-12-16T11:32:28.541Z,16.63
2023-12-16T11:35:37.293Z,17.84
2023-12-16T11:38:45.673Z,17.50
2023-12-16T11:41:50.334Z,14.44
2023-12-16T11:44:54.833Z,17.52
2023-12-16T11:47:58.424Z,17.30
2023-12-16T11:51:01.573Z,16.49
2023-12-16T11:54:07.433Z,17.55
2023-12-16T11:57:10.342Z,18.07
2023-12-16T12:00:13.238Z,18.58
2023-12-16T12:03:16.044Z,19.55
2023-12-16T12:06:19.811Z,20.24
2023-12-16T12:09:22.544Z,20.20
2023-12-16T12:12:24.891Z,21.15
2023-12-16T12:15:27.518Z,17.99
2023-12-16T12:18:30.184Z,18.96
2023-12-16T12:21:36.420Z,21.42
2023-12-16T12:24:38.878Z,18.70
2023-12-16T12:27:42.052Z,21.51
2023-12-16T12:30:44.643Z,19.73
2023-12-16T12:33:50.867Z,19.73
2023-12-16T12:36:57.366Z,20.36
2023-12-16T12:40:00.390Z,21.29
2023-12-16T12:43:03.049Z,20.38
2023-12-16T12:46:11.874Z,20.02
2023-12-16T12:49:15.328Z,19.30
2023-12-16T12:52:18.603Z,20.45
2023-12-16T12:55:21.183Z,20.34
2023-12-16T12:58:29.189Z,19.83
2023-12-16T13:01:33.490Z,20.20
2023-12-16T13:04:47.075Z,17.84
2023-12-16T13:07:50.481Z,16.57
2023-12-16T13:10:53.633Z,19.29
2023-12-16T13:13:56.181Z,21.41
2023-12-16T13:16:59.807Z,18.65
2023-12-16T13:20:02.458Z,17.76
2023-12-16T13:23:05.523Z,18.82
2023-12-16T13:26:12.019Z,20.59
2023-12-16T13:29:14.803Z,20.75
2023-12-16T13:32:17.263Z,19.08
2023-12-16T13:35:20.294Z,15.08
2023-12-16T13:38:22.694Z,15.83
2023-12-16T13:41:25.508Z,15.30
2023-12-16T13:44:28.177Z,14.72
2023-12-16T13:47:31.079Z,14.26
2023-12-16T13:50:33.562Z,11.05
2023-12-16T13:53:36.252Z,11.35
2023-12-16T13:56:38.861Z,15.30
2023-12-16T13:59:42.340Z,14.89
2023-12-16T14:02:44.826Z,15.37
2023-12-16T14:05:47.672Z,13.98
2023-12-16T14:08:50.226Z,12.59
2023-12-16T14:11:52.950Z,13.94
2023-12-16T14:14:55.480Z,13.78
2023-12-16T14:17:58.338Z,14.33
2023-12-16T14:21:00.879Z,11.91
2023-12-16T14:24:04.197Z,8.91
2023-12-16T14:27:06.840Z,7.57
2023-12-16T14:30:10.031Z,6.68
2023-12-16T14:33:12.903Z,5.84
2023-12-16T14:36:15.896Z,5.09
2023-12-16T14:39:18.438Z,5.18
2023-12-16T14:42:21.609Z,4.29
2023-12-16T14:45:24.236Z,4.02
2023-12-16T14:48:27.122Z,4.04
2023-12-16T14:51:36.729Z,3.58
2023-12-16T14:54:39.444Z,3.39
2023-12-16T14:57:42.025Z,3.38
2023-12-16T15:00:45.554Z,3.19
2023-12-16T15:03:48.811Z,3.10
2023-12-16T15:06:53.948Z,2.86
2023-12-16T15:09:56.622Z,2.57
2023-12-16T15:13:07.185Z,2.44
2023-12-16T15:16:12.049Z,2.22
2023-12-16T15:19:15.396Z,2.09
2023-12-16T15:22:17.936Z,2.01
2023-12-16T15:25:21.205Z,1.78
2023-12-16T15:28:23.652Z,1.76
2023-12-16T15:31:26.538Z,1.63
2023-12-16T15:34:30.229Z,1.57
2023-12-16T15:37:33.095Z,1.39
2023-12-16T15:40:35.495Z,1.18
2023-12-16T15:43:38.584Z,1.10
2023-12-16T15:46:44.143Z,1.22
2023-12-16T15:49:47.067Z,0.97
2023-12-16T15:52:49.571Z,0.73
2023-12-16T15:55:52.218Z,0.81
2023-12-16T15:58:54.634Z,0.75
2023-12-16T16:01:57.295Z,0.55
2023-12-16T16:05:00.018Z,0.35
2023-12-16T16:08:04.807Z,0.28
2023-12-16T16:11:08.088Z,0.26
2023-12-16T16:14:10.645Z,0.12
2023-12-16T16:17:14.419Z,0.00
2023-12-16T16:20:18.107Z,-0.04
2023-12-16T16:23:20.970Z,-0.01
2023-12-16T16:26:25.566Z,-0.16
2023-12-16T16:29:28.340Z,-0.19
2023-12-16T16:32:30.970Z,-0.25
2023-12-16T16:35:33.992Z,-0.39
2023-12-16T16:38:36.976Z,-0.44
2023-12-16T16:41:40.118Z,-0.39
2023-12-16T16:44:42.713Z,-0.47
2023-12-16T16:47:45.897Z,-0.51
2023-12-16T16:50:50.039Z,-0.60
2023-12-16T16:53:52.900Z,-0.53
2023-12-16T16:56:55.675Z,-0.57
2023-12-16T17:00:02.474Z,-0.55
2023-12-16T17:03:05.530Z,-0.60
2023-12-16T17:06:08.385Z,-0.76
2023-12-16T17:09:11.604Z,-0.90
2023-12-16T17:12:14.505Z,-0.95
2023-12-16T17:15:17.233Z,-1.03
2023-12-16T17:18:20.175Z,-1.04
2023-12-16T17:21:22.617Z,-1.07
2023-12-16T17:24:25.257Z,-1.19
2023-12-16T17:27:27.733Z,-1.23
2023-12-16T17:30:30.562Z,-1.27
2023-12-16T17:33:33.265Z,-1.29
2023-12-16T17:36:36.852Z,-1.30
2023-12-16T17:39:40.033Z,-1.37
2023-12-16T17:42:42.936Z,-1.37
2023-12-16T17:45:48.211Z,-1.34
2023-12-16T17:48:51.212Z,-1.40
2023-12-16T17:51:54.411Z,-1.40
2023-12-16T17:54:57.276Z,-1.38
2023-12-16T17:57:59.714Z,-1.36
2023-12-16T18:01:02.457Z,-1.28
2023-12-16T18:04:05.358Z,-1.35
2023-12-16T18:07:07.856Z,-1.38
2023-12-16T18:10:10.906Z,-1.37
2023-12-16T18:13:13.602Z,-1.41
2023-12-16T18:16:16.374Z,-1.24
2023-12-16T18:19:18.839Z,-1.25
2023-12-16T18:22:21.601Z,-0.82
2023-12-16T18:25:25.243Z,-1.02
2023-12-16T18:28:27.934Z,-1.01
2023-12-16T18:31:30.362Z,-0.85
2023-12-16T18:34:33.650Z,-0.99
2023-12-16T18:37:42.166Z,-0.71
2023-12-16T18:40:45.094Z,-1.06
2023-12-16T18:43:50.595Z,-1.06
2023-12-16T18:46:53.232Z,-1.03
2023-12-16T18:49:56.242Z,-1.06
2023-12-16T18:52:58.994Z,-0.88
2023-12-16T18:56:01.878Z,-1.12
2023-12-16T18:59:04.639Z,-1.18
2023-12-16T19:02:07.053Z,-1.26
2023-12-16T19:05:09.818Z,-1.34
2023-12-16T19:08:12.525Z,-1.41
2023-12-16T19:11:15.490Z,-1.39
2023-12-16T19:14:18.019Z,-1.46
2023-12-16T19:17:20.850Z,-1.48
2023-12-16T19:20:23.348Z,-1.54
2023-12-16T19:23:27.633Z,-1.58
2023-12-16T19:26:30.173Z,-1.61
2023-12-16T19:29:33.348Z,-1.62
2023-12-16T19:32:36.877Z,-1.69
2023-12-16T19:35:40.064Z,-1.67
2023-12-16T19:38:42.661Z,-1.71
2023-12-16T19:41:45.477Z,-1.80
2023-12-16T19:44:48.063Z,-1.79
2023-12-16T19:47:50.952Z,-1.83
2023-12-16T19:50:53.394Z,-1.85
2023-12-16T19:53:56.134Z,-1.85
2023-12-16T19:56:58.557Z,-1.80
2023-12-16T20:00:01.303Z,-1.89
2023-12-16T20:03:05.098Z,-1.89
2023-12-16T20:06:08.167Z,-1.91
2023-12-16T20:09:11.276Z,-1.91
2023-12-16T20:12:14.311Z,-1.82
2023-12-16T20:15:17.476Z,-1.56
2023-12-16T20:18:21.749Z,-1.08
2023-12-16T20:21:24.251Z,-1.43
2023-12-16T20:24:27.136Z,-1.41
2023-12-16T20:27:29.761Z,-1.47
2023-12-16T20:30:32.933Z,-1.62
2023-12-16T20:33:36.551Z,-1.62
2023-12-16T20:36:40.141Z,-1.72
2023-12-16T20:40:01.267Z,-1.82
2023-12-16T20:43:05.516Z,-1.77
2023-12-16T20:46:07.884Z,-1.74
2023-12-16T20:49:10.822Z,-1.81
2023-12-16T20:52:13.338Z,-1.89
2023-12-16T20:55:16.786Z,-1.79
2023-12-16T20:58:19.870Z,-1.77
2023-12-16T21:01:22.646Z,-1.86
2023-12-16T21:04:25.311Z,-1.97
2023-12-16T21:07:28.165Z,-1.88
2023-12-16T21:10:30.828Z,-1.84
2023-12-16T21:13:33.740Z,-1.94
2023-12-16T21:16:37.329Z,-1.81
2023-12-16T21:19:40.426Z,-1.94
2023-12-16T21:22:43.106Z,-2.02
2023-12-16T21:25:46.280Z,-2.06
2023-12-16T21:28:48.833Z,-2.05
2023-12-16T21:31:51.610Z,-1.91
2023-12-16T21:34:54.279Z,-2.02
2023-12-16T21:37:57.122Z,-2.02
2023-12-16T21:40:59.469Z,-2.00
2023-12-16T21:44:02.210Z,-2.00
2023-12-16T21:47:04.747Z,-1.89
2023-12-16T21:50:07.819Z,-1.64
2023-12-16T21:53:10.238Z,-1.75
2023-12-16T21:56:12.926Z,-1.57
2023-12-16T21:59:16.008Z,-1.53
2023-12-16T22:02:18.887Z,-1.31
2023-12-16T22:05:21.970Z,-1.34
2023-12-16T22:08:24.474Z,-1.31
2023-12-16T22:11:27.202Z,-1.34
2023-12-16T22:14:29.621Z,-1.08
2023-12-16T22:17:32.585Z,-0.95
2023-12-16T22:20:35.130Z,-1.02
2023-12-16T22:23:38.812Z,-1.01
2023-12-16T22:26:41.585Z,-0.96
2023-12-16T22:29:44.671Z,-0.74
2023-12-16T22:32:47.192Z,-0.70
2023-12-16T22:35:50.055Z,-0.66
2023-12-16T22:38:52.553Z,-0.80
2023-12-16T22:41:55.335Z,-0.86
2023-12-16T22:44:58.199Z,-0.69
2023-12-16T22:48:01.052Z,-0.78
2023-12-16T22:51:04.049Z,-0.86
2023-12-16T22:54:06.839Z,-0.76
2023-12-16T22:57:09.270Z,-0.85
2023-12-16T23:00:31.893Z,-0.78
2023-12-16T23:03:34.748Z,-0.69
2023-12-16T23:06:37.562Z,-0.73
2023-12-16T23:09:40.087Z,-0.81
2023-12-16T23:12:43.281Z,-0.97
2023-12-16T23:15:45.700Z,-0.98
2023-12-16T23:18:48.462Z,-0.99
2023-12-16T23:21:51.824Z,-0.84
2023-12-16T23:24:54.664Z,-0.92
2023-12-16T23:27:57.045Z,-1.00
2023-12-16T23:31:07.373Z,-0.77
2023-12-16T23:34:14.034Z,-0.84
2023-12-16T23:37:16.738Z,-0.76
2023-12-16T23:40:19.172Z,-0.95
2023-12-16T23:43:21.850Z,-0.85
2023-12-16T23:46:24.460Z,-0.84
2023-12-16T23:49:27.267Z,-0.91
2023-12-16T23:52:29.801Z,-0.84
2023-12-16T23:55:32.447Z,-0.83
2023-12-16T23:58:35.179Z,-0.82
